Time;durP1;ratioP1;P1;durP2;ratioP2;P2;SDS_P1;SDS_P2;PMS_P1;PMS_P2;Temp;Humidity;BMP_temperature;BMP_pressure;BME280_temperature;BME280_humidity;BME280_pressure;Samples;Min_cycle;Max_cycle;Signal;HPM_P1;HPM_P2
2023/12/09 00:01:27;;;;;;;0.80;0.75;;;15.40;67.60;;;;;;4965715;28;20505;-80
2023/12/09 00:03:53;;;;;;;1.35;0.80;;;15.40;67.60;;;;;;4965728;28;20568;-79
2023/12/09 00:06:19;;;;;;;0.77;0.77;;;15.40;67.80;;;;;;4963049;28;20050;-79
2023/12/09 00:08:45;;;;;;;0.70;0.70;;;15.40;67.60;;;;;;4963320;28;20039;-79
2023/12/09 00:11:11;;;;;;;0.77;0.50;;;15.40;67.60;;;;;;4962986;28;20039;-79
2023/12/09 00:13:36;;;;;;;0.80;0.80;;;15.40;67.60;;;;;;4964679;28;20070;-80
2023/12/09 00:16:02;;;;;;;0.70;0.70;;;15.40;68.40;;;;;;4951395;28;20035;-79
2023/12/09 00:18:27;;;;;;;0.85;0.70;;;15.40;67.60;;;;;;4968957;28;20038;-90
2023/12/09 00:20:53;;;;;;;1.38;0.93;;;15.40;67.60;;;;;;4969311;28;20042;-91
2023/12/09 00:23:19;;;;;;;0.82;0.70;;;15.40;67.60;;;;;;4970208;28;20579;-90
2023/12/09 00:25:44;;;;;;;0.82;0.82;;;15.40;67.70;;;;;;4971211;28;20035;-90
2023/12/09 00:28:10;;;;;;;1.45;0.95;;;15.40;67.70;;;;;;4971021;28;20042;-90
2023/12/09 00:30:35;;;;;;;1.13;0.88;;;15.40;67.60;;;;;;4970526;28;20521;-90
2023/12/09 00:33:01;;;;;;;0.77;0.60;;;15.40;67.60;;;;;;4969638;28;20093;-90
2023/12/09 00:35:26;;;;;;;0.80;0.80;;;15.40;67.60;;;;;;4971624;28;20043;-91
2023/12/09 00:37:53;;;;;;;1.33;1.23;;;15.40;67.60;;;;;;4970435;28;20600;-90
2023/12/09 00:40:19;;;;;;;0.90;0.90;;;15.40;67.60;;;;;;4970331;28;20563;-90
2023/12/09 00:42:46;;;;;;;0.73;0.73;;;15.30;67.50;;;;;;4971245;28;20142;-89
2023/12/09 00:45:12;;;;;;;1.00;0.90;;;15.40;67.70;;;;;;4969171;28;20078;-90
2023/12/09 00:47:37;;;;;;;0.93;0.75;;;15.40;67.60;;;;;;4970664;28;20089;-91
2023/12/09 00:50:03;;;;;;;0.90;0.70;;;15.30;67.50;;;;;;4970236;28;20472;-90
2023/12/09 00:52:28;;;;;;;1.05;0.88;;;15.30;67.50;;;;;;4969754;28;20044;-90
2023/12/09 00:54:54;;;;;;;1.13;1.05;;;15.40;67.60;;;;;;4969520;28;20050;-90
2023/12/09 00:57:20;;;;;;;1.00;0.60;;;15.30;67.50;;;;;;4968693;28;20057;-91
2023/12/09 00:59:47;;;;;;;1.00;0.90;;;15.40;67.60;;;;;;4968310;28;20041;-90
2023/12/09 01:02:12;;;;;;;0.98;0.60;;;15.30;67.50;;;;;;4969809;28;20073;-90
2023/12/09 01:04:38;;;;;;;0.95;0.70;;;15.30;67.60;;;;;;4969570;28;20039;-90
2023/12/09 01:07:03;;;;;;;0.93;0.82;;;15.30;67.50;;;;;;4967386;28;20042;-90
2023/12/09 01:09:29;;;;;;;0.50;0.50;;;15.30;67.50;;;;;;4969007;28;20532;-89
2023/12/09 01:11:55;;;;;;;0.73;0.65;;;15.40;67.60;;;;;;4968283;28;20042;-90
2023/12/09 01:14:20;;;;;;;0.63;0.60;;;15.30;67.50;;;;;;4970933;28;20130;-89
2023/12/09 01:16:46;;;;;;;1.05;0.70;;;15.40;68.10;;;;;;4967134;28;20046;-91
2023/12/09 01:19:11;;;;;;;0.82;0.57;;;15.30;67.50;;;;;;4970970;28;20509;-90
2023/12/09 01:21:37;;;;;;;0.70;0.70;;;15.30;67.50;;;;;;4973213;28;20527;-90
2023/12/09 01:24:04;;;;;;;0.73;0.70;;;15.30;67.60;;;;;;4973836;28;20172;-90
2023/12/09 01:26:30;;;;;;;0.57;0.50;;;15.30;67.60;;;;;;4975237;28;20039;-90
2023/12/09 01:28:56;;;;;;;1.13;0.70;;;15.30;67.60;;;;;;4973244;28;20057;-90
2023/12/09 01:31:22;;;;;;;0.95;0.70;;;15.30;67.80;;;;;;4972160;28;20053;-90
2023/12/09 01:33:47;;;;;;;0.70;0.70;;;15.30;67.60;;;;;;4972917;28;20047;-90
2023/12/09 01:36:13;;;;;;;0.77;0.60;;;15.40;67.60;;;;;;4972324;28;20047;-90
2023/12/09 01:38:38;;;;;;;0.90;0.63;;;15.30;67.60;;;;;;4973808;28;20130;-90
2023/12/09 01:41:04;;;;;;;0.70;0.70;;;15.30;67.70;;;;;;4974640;28;20061;-90
2023/12/09 01:43:29;;;;;;;2.80;1.25;;;15.30;67.60;;;;;;4973798;28;20061;-90
2023/12/09 01:45:59;;;;;;;0.50;0.50;;;15.30;67.60;;;;;;4976402;28;20097;-90
2023/12/09 01:48:24;;;;;;;1.67;0.65;;;15.30;67.70;;;;;;4973052;28;20114;-91
2023/12/09 01:50:50;;;;;;;1.10;0.80;;;15.30;67.70;;;;;;4973174;28;20517;-90
2023/12/09 01:53:15;;;;;;;0.80;0.80;;;15.30;67.70;;;;;;4972369;28;20588;-90
2023/12/09 01:55:41;;;;;;;1.58;0.80;;;15.30;68.40;;;;;;4972650;28;20043;-91
2023/12/09 01:58:07;;;;;;;0.60;0.30;;;15.30;67.60;;;;;;4968327;28;20047;-90
2023/12/09 02:00:32;;;;;;;1.48;0.60;;;15.30;67.70;;;;;;4972466;28;20445;-90
2023/12/09 02:02:58;;;;;;;1.05;0.50;;;15.30;67.70;;;;;;4970602;28;20039;-90
2023/12/09 02:05:24;;;;;;;1.02;1.00;;;15.30;67.80;;;;;;4966116;28;20048;-90
2023/12/09 02:07:49;;;;;;;0.60;0.60;;;15.30;67.80;;;;;;4970498;28;20054;-90
2023/12/09 02:10:16;;;;;;;0.95;0.85;;;15.30;67.80;;;;;;4972002;28;20047;-91
2023/12/09 02:12:57;;;;;;;1.17;0.88;;;15.30;67.70;;;;;;4970253;28;20066;-90
2023/12/09 02:15:25;;;;;;;1.13;0.75;;;15.30;67.80;;;;;;4967996;28;20424;-90
2023/12/09 02:18:01;;;;;;;0.70;0.60;;;15.40;67.80;;;;;;4971446;28;20117;-90
2023/12/09 02:20:27;;;;;;;0.40;0.40;;;15.30;67.80;;;;;;4952326;28;20130;-90
2023/12/09 02:23:11;;;;;;;1.35;0.68;;;15.30;67.80;;;;;;4971534;28;20126;-90
2023/12/09 02:25:37;;;;;;;0.60;0.60;;;15.30;67.70;;;;;;4973418;28;20049;-90
2023/12/09 02:28:24;;;;;;;0.70;0.52;;;15.30;67.80;;;;;;4972210;28;20030;-90
2023/12/09 02:31:09;;;;;;;0.73;0.68;;;15.30;67.80;;;;;;4970925;28;20058;-88
2023/12/09 02:33:34;;;;;;;1.40;0.65;;;15.30;67.80;;;;;;4970217;28;20508;-90
2023/12/09 02:36:00;;;;;;;0.70;0.70;;;15.30;67.80;;;;;;4971098;28;20055;-90
2023/12/09 02:38:25;;;;;;;0.80;0.80;;;15.30;67.80;;;;;;4970980;28;20605;-90
2023/12/09 02:40:51;;;;;;;1.27;0.82;;;15.30;67.80;;;;;;4950450;28;20122;-90
2023/12/09 02:43:16;;;;;;;0.90;0.60;;;15.30;67.80;;;;;;4966370;28;20082;-90
2023/12/09 02:45:45;;;;;;;0.95;0.75;;;15.30;67.80;;;;;;4969302;28;20039;-91
2023/12/09 02:48:11;;;;;;;1.45;0.80;;;15.30;67.80;;;;;;4966981;28;20042;-90
2023/12/09 02:50:36;;;;;;;0.57;0.50;;;15.30;67.90;;;;;;4969442;28;20047;-90
2023/12/09 02:53:02;;;;;;;1.08;0.90;;;15.30;68.00;;;;;;4972082;28;20078;-90
2023/12/09 02:55:28;;;;;;;0.60;0.60;;;15.30;67.80;;;;;;4972545;28;20039;-90
2023/12/09 02:57:53;;;;;;;0.40;0.38;;;15.30;67.90;;;;;;4971419;28;20027;-90
2023/12/09 03:00:19;;;;;;;0.47;0.45;;;15.30;68.00;;;;;;4965211;28;20043;-90
2023/12/09 03:02:44;;;;;;;1.50;0.65;;;15.30;67.90;;;;;;4965370;28;20146;-90
2023/12/09 03:05:10;;;;;;;0.82;0.50;;;15.30;67.80;;;;;;4972422;28;20129;-91
2023/12/09 03:07:35;;;;;;;1.15;0.50;;;15.30;68.10;;;;;;4974828;28;20042;-90
2023/12/09 03:10:01;;;;;;;0.63;0.55;;;15.30;68.00;;;;;;4969866;28;20035;-90
2023/12/09 03:12:27;;;;;;;1.05;0.60;;;15.30;67.90;;;;;;4972388;28;20047;-90
2023/12/09 03:14:53;;;;;;;1.10;0.45;;;15.30;68.70;;;;;;4970630;28;20038;-89
2023/12/09 03:17:18;;;;;;;0.65;0.50;;;15.30;67.90;;;;;;4963472;28;20110;-90
2023/12/09 03:19:44;;;;;;;0.50;0.45;;;15.30;67.90;;;;;;4972381;28;20027;-90
2023/12/09 03:22:10;;;;;;;0.47;0.47;;;15.30;68.00;;;;;;4971152;28;20078;-90
2023/12/09 03:24:35;;;;;;;0.98;0.65;;;15.30;68.10;;;;;;4972917;28;20046;-91
2023/12/09 03:27:01;;;;;;;1.00;0.90;;;15.30;68.10;;;;;;4971344;28;20046;-90
2023/12/09 03:29:26;;;;;;;0.63;0.52;;;15.30;68.00;;;;;;4972712;28;20035;-90
2023/12/09 03:31:52;;;;;;;0.70;0.70;;;15.20;68.10;;;;;;4970643;28;20065;-90
2023/12/09 03:34:17;;;;;;;1.05;0.70;;;15.30;68.10;;;;;;4971097;28;20057;-90
2023/12/09 03:36:43;;;;;;;0.45;0.40;;;15.30;68.10;;;;;;4972496;28;20109;-89
2023/12/09 03:39:11;;;;;;;0.93;0.60;;;15.30;68.00;;;;;;4969180;28;20063;-91
2023/12/09 03:41:37;;;;;;;0.60;0.45;;;15.20;68.10;;;;;;4972298;28;20047;-91
2023/12/09 03:44:02;;;;;;;1.20;0.60;;;15.20;68.00;;;;;;4969992;28;20051;-90
2023/12/09 03:46:28;;;;;;;0.50;0.40;;;15.20;68.10;;;;;;4972183;28;20066;-90
2023/12/09 03:48:54;;;;;;;0.63;0.57;;;15.20;68.10;;;;;;4970809;28;20035;-90
2023/12/09 03:51:19;;;;;;;1.00;0.50;;;15.20;68.10;;;;;;4970317;28;20055;-90
2023/12/09 03:53:45;;;;;;;0.90;0.70;;;15.20;68.10;;;;;;4968979;28;20043;-91
2023/12/09 03:56:11;;;;;;;0.45;0.45;;;15.30;68.10;;;;;;4964505;28;20093;-90
2023/12/09 03:58:37;;;;;;;1.02;0.90;;;15.20;68.10;;;;;;4971952;28;20062;-90
2023/12/09 04:01:03;;;;;;;0.43;0.40;;;15.20;68.00;;;;;;4969609;28;20520;-90
2023/12/09 04:03:28;;;;;;;0.50;0.50;;;15.20;68.00;;;;;;4970895;28;20065;-91
2023/12/09 04:05:54;;;;;;;0.60;0.60;;;15.30;68.10;;;;;;4970488;28;20047;-91
2023/12/09 04:08:20;;;;;;;0.70;0.60;;;15.20;68.20;;;;;;4964430;28;20155;-91
2023/12/09 04:10:46;;;;;;;0.47;0.32;;;15.30;68.10;;;;;;4969646;28;20493;-90
2023/12/09 04:13:11;;;;;;;0.43;0.43;;;15.30;68.20;;;;;;4971090;28;20058;-90
2023/12/09 04:15:38;;;;;;;0.68;0.52;;;15.30;68.20;;;;;;4970687;28;20400;-91
2023/12/09 04:18:06;;;;;;;0.50;0.50;;;15.30;68.10;;;;;;4971143;28;20046;-91
2023/12/09 04:20:32;;;;;;;1.35;0.60;;;15.30;68.20;;;;;;4964136;28;20070;-91
2023/12/09 04:22:58;;;;;;;0.95;0.60;;;15.20;68.20;;;;;;4970562;28;20493;-91
2023/12/09 04:25:24;;;;;;;0.40;0.40;;;15.20;68.20;;;;;;4971282;28;20106;-91
2023/12/09 04:27:54;;;;;;;0.40;0.40;;;15.30;68.20;;;;;;4970850;28;20050;-90
2023/12/09 04:30:20;;;;;;;0.60;0.60;;;15.30;68.30;;;;;;4970299;28;20129;-91
2023/12/09 04:32:45;;;;;;;0.65;0.50;;;15.20;68.30;;;;;;4964670;28;20147;-90
2023/12/09 04:35:11;;;;;;;0.50;0.40;;;15.20;68.10;;;;;;4969540;28;20057;-91
2023/12/09 04:37:36;;;;;;;0.40;0.40;;;15.20;68.20;;;;;;4971154;28;20062;-91
2023/12/09 04:40:09;;;;;;;0.30;0.30;;;15.20;68.10;;;;;;4970383;28;20092;-91
2023/12/09 04:42:35;;;;;;;0.73;0.40;;;15.20;68.30;;;;;;4969683;28;20050;-91
2023/12/09 04:45:00;;;;;;;0.47;0.43;;;15.20;68.20;;;;;;4963373;28;20054;-91
2023/12/09 04:47:26;;;;;;;0.20;0.20;;;15.20;68.20;;;;;;4971137;28;20043;-91
2023/12/09 04:49:52;;;;;;;0.40;0.40;;;15.20;68.30;;;;;;4970821;28;20038;-91
2023/12/09 04:52:17;;;;;;;1.58;0.40;;;15.20;68.30;;;;;;4968613;28;20038;-90
2023/12/09 04:54:43;;;;;;;0.50;0.30;;;15.20;68.20;;;;;;4972320;28;20059;-91
2023/12/09 04:57:08;;;;;;;0.40;0.28;;;15.20;68.30;;;;;;4990335;28;20042;-90
2023/12/09 04:59:34;;;;;;;0.52;0.50;;;15.30;68.40;;;;;;4975788;28;20047;-91
2023/12/09 05:01:59;;;;;;;0.60;0.30;;;15.20;68.10;;;;;;4974248;28;20050;-90
2023/12/09 05:04:25;;;;;;;0.40;0.40;;;15.20;68.20;;;;;;4975073;28;20046;-90
2023/12/09 05:06:50;;;;;;;0.50;0.35;;;15.20;68.30;;;;;;4974765;28;20058;-91
2023/12/09 05:09:16;;;;;;;0.70;0.40;;;15.20;68.40;;;;;;4974681;28;20042;-90
2023/12/09 05:11:41;;;;;;;0.52;0.38;;;15.20;68.40;;;;;;4975116;28;20125;-91
2023/12/09 05:14:07;;;;;;;0.50;0.50;;;15.20;68.40;;;;;;4967898;28;20039;-90
2023/12/09 05:16:33;;;;;;;0.55;0.55;;;15.20;68.80;;;;;;4967822;28;20042;-91
2023/12/09 05:18:58;;;;;;;0.50;0.32;;;15.20;68.60;;;;;;4967236;28;20046;-90
2023/12/09 05:21:24;;;;;;;0.40;0.40;;;15.20;68.40;;;;;;4974399;28;20047;-91
2023/12/09 05:23:49;;;;;;;0.40;0.35;;;15.20;68.50;;;;;;4971549;28;20075;-91
2023/12/09 05:26:26;;;;;;;0.55;0.35;;;15.20;69.30;;;;;;4974644;28;20530;-91
2023/12/09 05:28:52;;;;;;;0.40;0.40;;;15.20;68.60;;;;;;4972831;28;20039;-91
2023/12/09 05:31:17;;;;;;;0.30;0.30;;;15.20;68.50;;;;;;4973068;28;20628;-91
2023/12/09 05:33:43;;;;;;;0.68;0.40;;;15.20;68.50;;;;;;4970002;28;20101;-91
2023/12/09 05:36:09;;;;;;;0.52;0.40;;;15.20;68.50;;;;;;4974392;28;20053;-91
2023/12/09 05:38:35;;;;;;;0.47;0.20;;;15.20;68.60;;;;;;4974037;28;20501;-91
2023/12/09 05:41:01;;;;;;;0.32;0.30;;;15.20;68.50;;;;;;4972895;28;20089;-91
2023/12/09 05:43:26;;;;;;;0.38;0.28;;;15.20;68.50;;;;;;4973947;28;20089;-91
2023/12/09 05:45:52;;;;;;;0.40;0.40;;;15.20;68.60;;;;;;4973989;28;20042;-91
2023/12/09 05:48:17;;;;;;;0.25;0.20;;;15.20;68.60;;;;;;4973813;28;20096;-90
2023/12/09 05:50:44;;;;;;;0.40;0.38;;;15.20;68.80;;;;;;4971868;28;20050;-91
2023/12/09 05:53:09;;;;;;;0.38;0.22;;;15.20;68.70;;;;;;4973401;28;20520;-90
2023/12/09 05:55:35;;;;;;;0.30;0.30;;;15.20;68.40;;;;;;4972320;28;20035;-91
2023/12/09 05:58:01;;;;;;;0.40;0.30;;;15.20;68.60;;;;;;4971439;28;20500;-91
2023/12/09 06:00:26;;;;;;;0.40;0.40;;;15.20;68.70;;;;;;4973452;28;20653;-91
2023/12/09 06:02:52;;;;;;;0.30;0.30;;;15.20;68.40;;;;;;4974607;28;20047;-91
2023/12/09 06:05:17;;;;;;;0.30;0.30;;;15.20;68.50;;;;;;4969147;28;20138;-91
2023/12/09 06:07:43;;;;;;;0.40;0.30;;;15.20;68.80;;;;;;4971281;28;20508;-89
2023/12/09 06:10:09;;;;;;;0.47;0.30;;;15.20;68.50;;;;;;4972228;28;20571;-91
2023/12/09 06:12:35;;;;;;;0.20;0.20;;;15.20;68.70;;;;;;4965575;28;20139;-91
2023/12/09 06:15:00;;;;;;;0.57;0.55;;;15.20;68.70;;;;;;4972828;28;20047;-91
2023/12/09 06:17:26;;;;;;;0.22;0.10;;;15.20;68.40;;;;;;4972033;28;20039;-91
2023/12/09 06:19:52;;;;;;;0.30;0.30;;;15.20;68.50;;;;;;4969607;28;20042;-76
2023/12/09 06:22:17;;;;;;;0.63;0.40;;;15.20;68.50;;;;;;4969782;28;20039;-77
2023/12/09 06:24:44;;;;;;;0.30;0.30;;;15.20;68.60;;;;;;4969269;28;20027;-77
2023/12/09 06:27:09;;;;;;;0.30;0.30;;;15.20;68.90;;;;;;4967654;28;20097;-77
2023/12/09 06:29:35;;;;;;;0.57;0.25;;;15.20;68.80;;;;;;4967574;28;20047;-77
2023/12/09 06:32:01;;;;;;;0.30;0.22;;;15.20;69.20;;;;;;4963016;28;20179;-77
2023/12/09 06:34:26;;;;;;;0.30;0.30;;;15.20;69.00;;;;;;4968985;28;20050;-77
2023/12/09 06:36:52;;;;;;;0.30;0.20;;;15.20;69.00;;;;;;4969311;28;20045;-77
2023/12/09 06:39:17;;;;;;;0.20;0.20;;;15.20;69.20;;;;;;4961754;28;20426;-77
2023/12/09 06:41:43;;;;;;;0.25;0.25;;;15.20;68.90;;;;;;4967710;28;20045;-77
2023/12/09 06:44:09;;;;;;;0.40;0.35;;;15.20;68.70;;;;;;4971351;28;20051;-76
2023/12/09 06:46:40;;;;;;;0.35;0.30;;;15.20;69.80;;;;;;4969348;28;20046;-78
2023/12/09 06:49:06;;;;;;;0.20;0.20;;;15.20;69.00;;;;;;4969109;28;20046;-78
2023/12/09 06:51:32;;;;;;;0.22;0.20;;;15.20;69.00;;;;;;4969743;28;20046;-77
2023/12/09 06:53:57;;;;;;;0.10;0.10;;;15.20;69.20;;;;;;4969608;28;20082;-77
2023/12/09 06:56:23;;;;;;;0.20;0.10;;;15.20;69.30;;;;;;4935551;28;20126;-77
2023/12/09 06:58:49;;;;;;;0.10;0.10;;;15.20;69.00;;;;;;4967384;28;20147;-77
2023/12/09 07:01:24;;;;;;;0.20;0.20;;;15.20;69.50;;;;;;4967765;28;20039;-77
2023/12/09 07:03:50;;;;;;;0.30;0.15;;;15.20;68.90;;;;;;4968261;28;20136;-77
2023/12/09 07:06:23;;;;;;;0.20;0.13;;;15.20;69.20;;;;;;4967789;28;20513;-77
2023/12/09 07:08:48;;;;;;;0.30;0.17;;;15.20;69.40;;;;;;4968555;28;20493;-77
2023/12/09 07:11:16;;;;;;;0.30;0.20;;;15.20;69.30;;;;;;4969924;28;20042;-77
2023/12/09 07:13:41;;;;;;;0.10;0.10;;;15.20;69.10;;;;;;4969251;28;20500;-77
2023/12/09 07:16:12;;;;;;;0.30;0.20;;;15.20;69.20;;;;;;4949884;28;20049;-79
2023/12/09 07:18:40;;;;;;;0.10;0.10;;;15.20;69.30;;;;;;4964722;28;20408;-77
2023/12/09 07:21:06;;;;;;;0.20;0.20;;;15.20;69.60;;;;;;4966324;28;20452;-77
2023/12/09 07:23:31;;;;;;;0.20;0.10;;;15.20;69.40;;;;;;4963272;28;20501;-77
2023/12/09 07:25:57;;;;;;;0.20;0.20;;;15.20;69.60;;;;;;4968088;28;20252;-77
2023/12/09 07:28:23;;;;;;;0.15;0.10;;;15.20;69.70;;;;;;4969024;28;20058;-77
2023/12/09 07:30:48;;;;;;;0.10;0.10;;;15.20;69.70;;;;;;4969083;28;20378;-77
2023/12/09 07:33:14;;;;;;;0.20;0.10;;;15.20;69.30;;;;;;4965317;28;20505;-77
2023/12/09 07:35:39;;;;;;;0.38;0.15;;;15.20;69.40;;;;;;4967796;28;20061;-77
2023/12/09 07:38:13;;;;;;;0.20;0.20;;;15.20;70.00;;;;;;5067192;27;20386;-77
2023/12/09 07:40:39;;;;;;;0.17;0.17;;;15.30;70.10;;;;;;5051368;28;20036;-77
2023/12/09 07:43:06;;;;;;;0.15;0.10;;;15.20;69.90;;;;;;5000552;28;20051;-77
2023/12/09 07:45:32;;;;;;;0.20;0.20;;;15.20;70.00;;;;;;5002030;28;20668;-77
2023/12/09 07:47:57;;;;;;;0.13;0.10;;;15.20;70.00;;;;;;5023822;28;20046;-76
2023/12/09 07:50:23;;;;;;;0.30;0.10;;;15.20;69.80;;;;;;5010024;28;20500;-77
2023/12/09 07:52:48;;;;;;;0.20;0.13;;;15.20;69.00;;;;;;5016077;28;20049;-76
2023/12/09 07:55:15;;;;;;;0.13;0.03;;;15.20;68.80;;;;;;5007080;28;20044;-77
2023/12/09 07:57:41;;;;;;;0.20;0.20;;;15.30;69.00;;;;;;5005860;28;20041;-77
2023/12/09 08:00:07;;;;;;;0.20;0.20;;;15.30;70.40;;;;;;5037785;28;20047;-78
2023/12/09 08:02:33;;;;;;;0.40;0.20;;;15.20;69.50;;;;;;5043479;28;20150;-77
2023/12/09 08:04:58;;;;;;;0.13;0.10;;;15.20;70.30;;;;;;5028542;28;20522;-77
2023/12/09 08:07:24;;;;;;;0.20;0.20;;;15.20;69.30;;;;;;5054265;28;20108;-77
2023/12/09 08:09:49;;;;;;;0.20;0.13;;;15.30;68.80;;;;;;5025969;28;20440;-77
2023/12/09 08:12:15;;;;;;;0.22;0.20;;;15.20;70.90;;;;;;5000994;28;20041;-77
2023/12/09 08:14:41;;;;;;;0.20;0.10;;;15.20;69.90;;;;;;5043196;28;20124;-77
2023/12/09 08:17:06;;;;;;;0.10;0.10;;;15.30;69.40;;;;;;5028233;28;21850;-78
2023/12/09 08:19:32;;;;;;;0.38;0.30;;;15.20;69.10;;;;;;5044701;28;20139;-76
2023/12/09 08:21:59;;;;;;;0.10;0.10;;;15.30;69.00;;;;;;5044117;28;20053;-77
2023/12/09 08:24:25;;;;;;;0.20;0.10;;;15.20;68.50;;;;;;5027509;28;20048;-77
2023/12/09 08:26:50;;;;;;;0.32;0.20;;;15.30;69.80;;;;;;5044224;28;20345;-77
2023/12/09 08:29:16;;;;;;;0.40;0.20;;;15.30;70.20;;;;;;5058035;28;20107;-77
2023/12/09 08:31:41;;;;;;;0.10;0.10;;;15.30;69.50;;;;;;5030702;28;20029;-77
2023/12/09 08:34:07;;;;;;;0.13;0.13;;;15.30;68.60;;;;;;5052431;28;20513;-77
2023/12/09 08:36:32;;;;;;;0.00;0.00;;;15.30;69.20;;;;;;5043191;28;20052;-77
2023/12/09 08:39:01;;;;;;;0.30;0.13;;;15.30;70.50;;;;;;5011324;28;20511;-77
2023/12/09 08:41:26;;;;;;;0.10;0.10;;;15.30;69.80;;;;;;5040418;28;20520;-77
2023/12/09 08:43:52;;;;;;;0.20;0.10;;;15.30;69.50;;;;;;5029456;28;20029;-77
2023/12/09 08:46:18;;;;;;;0.17;0.10;;;15.20;69.50;;;;;;5027266;28;20052;-77
2023/12/09 08:48:44;;;;;;;0.20;0.20;;;15.30;68.80;;;;;;5052048;28;20033;-77
2023/12/09 08:51:10;;;;;;;0.15;0.10;;;15.30;68.80;;;;;;5045705;28;20041;-77
2023/12/09 08:53:36;;;;;;;0.20;0.10;;;15.30;69.70;;;;;;5039604;28;20063;-77
2023/12/09 08:56:01;;;;;;;0.13;0.10;;;15.30;69.20;;;;;;5029033;28;20044;-77
2023/12/09 08:58:27;;;;;;;0.10;0.10;;;15.30;69.60;;;;;;5039589;28;20044;-77
2023/12/09 09:00:52;;;;;;;0.10;0.10;;;15.30;70.00;;;;;;5024538;28;20061;-77
2023/12/09 09:03:18;;;;;;;0.10;0.10;;;15.30;68.90;;;;;;4997379;28;20044;-77
2023/12/09 09:05:43;;;;;;;0.50;0.20;;;15.30;69.50;;;;;;5014534;28;20063;-77
2023/12/09 09:08:09;;;;;;;0.00;0.00;;;15.30;69.00;;;;;;5043120;28;20567;-78
2023/12/09 09:10:34;;;;;;;0.10;0.10;;;15.30;69.40;;;;;;5042213;28;20036;-77
2023/12/09 09:13:00;;;;;;;0.10;0.10;;;15.30;69.00;;;;;;5042778;28;20034;-77
2023/12/09 09:15:27;;;;;;;0.00;0.00;;;15.30;69.40;;;;;;5052118;28;20052;-77
2023/12/09 09:17:52;;;;;;;0.10;0.10;;;15.30;69.20;;;;;;4996719;28;20419;-76
2023/12/09 09:20:18;;;;;;;0.10;0.10;;;15.30;69.90;;;;;;5043214;28;20502;-77
2023/12/09 09:22:43;;;;;;;0.10;0.10;;;15.30;69.80;;;;;;5007202;28;20061;-76
2023/12/09 09:25:09;;;;;;;0.10;0.10;;;15.30;69.70;;;;;;5010952;28;20155;-76
2023/12/09 09:27:35;;;;;;;0.10;0.10;;;15.30;70.50;;;;;;5009784;28;20037;-77
2023/12/09 09:30:00;;;;;;;0.15;0.10;;;15.30;69.00;;;;;;5007767;28;20045;-77
2023/12/09 09:32:26;;;;;;;0.03;0.03;;;15.30;69.30;;;;;;5019281;28;20030;-77
2023/12/09 09:34:52;;;;;;;0.20;0.10;;;15.30;68.70;;;;;;5012987;28;20066;-77
2023/12/09 09:37:18;;;;;;;0.10;0.10;;;15.30;69.20;;;;;;5026213;28;20037;-77
2023/12/09 09:39:43;;;;;;;0.10;0.00;;;15.30;70.10;;;;;;4974606;28;20503;-77
2023/12/09 09:42:14;;;;;;;0.10;0.10;;;15.30;69.10;;;;;;5023149;28;20109;-77
2023/12/09 09:45:00;;;;;;;0.10;0.10;;;15.30;69.20;;;;;;5057687;28;20598;-77
2023/12/09 09:47:26;;;;;;;0.10;0.10;;;15.30;69.00;;;;;;5038311;28;20037;-77
2023/12/09 09:49:52;;;;;;;0.10;0.10;;;15.30;69.70;;;;;;4992246;28;20037;-77
2023/12/09 09:52:17;;;;;;;0.10;0.10;;;15.30;69.90;;;;;;5009232;28;20057;-80
2023/12/09 09:54:43;;;;;;;0.00;0.00;;;15.30;69.80;;;;;;5040131;28;20045;-77
2023/12/09 09:57:09;;;;;;;0.00;0.00;;;15.30;69.70;;;;;;5049706;28;20045;-77
2023/12/09 09:59:35;;;;;;;0.10;0.05;;;15.30;70.50;;;;;;5027185;28;20053;-77
2023/12/09 10:02:02;;;;;;;0.00;0.00;;;15.30;69.50;;;;;;5006207;28;20067;-77
2023/12/09 10:04:28;;;;;;;0.10;0.10;;;15.30;70.60;;;;;;5004705;28;20106;-77
2023/12/09 10:06:54;;;;;;;0.20;0.00;;;15.30;68.80;;;;;;5038895;28;20087;-76
2023/12/09 10:09:19;;;;;;;0.20;0.10;;;15.30;69.30;;;;;;5043438;28;20124;-77
2023/12/09 10:11:45;;;;;;;0.10;0.10;;;15.30;69.00;;;;;;5039311;28;20124;-77
2023/12/09 10:14:10;;;;;;;0.10;0.10;;;15.30;69.30;;;;;;5019544;28;20128;-77
2023/12/09 10:16:36;;;;;;;0.20;0.20;;;15.30;69.00;;;;;;5007440;28;20049;-77
2023/12/09 10:19:01;;;;;;;0.10;0.03;;;15.30;69.50;;;;;;5032084;28;20048;-77
2023/12/09 10:21:27;;;;;;;0.40;0.10;;;15.30;69.50;;;;;;5028759;28;20418;-77
2023/12/09 10:23:52;;;;;;;0.10;0.08;;;15.30;69.80;;;;;;4994749;28;20059;-77
2023/12/09 10:26:18;;;;;;;0.00;0.00;;;15.30;70.90;;;;;;5028395;28;20522;-77
2023/12/09 10:28:44;;;;;;;0.00;0.00;;;15.30;70.20;;;;;;5041599;28;20414;-77
2023/12/09 10:31:09;;;;;;;0.00;0.00;;;15.30;69.00;;;;;;5046891;28;20411;-76
2023/12/09 10:33:35;;;;;;;0.10;0.10;;;15.40;69.30;;;;;;4993022;28;20053;-77
2023/12/09 10:36:01;;;;;;;0.10;0.10;;;15.30;69.10;;;;;;5029181;28;20545;-77
2023/12/09 10:38:27;;;;;;;0.00;0.00;;;15.40;69.40;;;;;;5043238;28;20049;-77
2023/12/09 10:40:55;;;;;;;0.10;0.10;;;15.30;69.30;;;;;;5041660;28;20430;-76
2023/12/09 10:43:21;;;;;;;0.00;0.00;;;15.40;70.10;;;;;;5022042;28;20048;-77
2023/12/09 10:45:47;;;;;;;0.10;0.10;;;15.40;69.40;;;;;;5042905;28;20036;-77
2023/12/09 10:48:13;;;;;;;0.10;0.10;;;15.40;69.00;;;;;;5026444;28;20033;-77
2023/12/09 10:50:38;;;;;;;0.20;0.10;;;15.30;69.20;;;;;;5050981;28;20384;-77
2023/12/09 10:53:04;;;;;;;0.00;0.00;;;15.40;69.30;;;;;;5049978;28;20045;-76
2023/12/09 10:55:30;;;;;;;0.00;0.00;;;15.40;69.00;;;;;;5038696;28;20399;-77
2023/12/09 10:57:57;;;;;;;0.10;0.10;;;15.40;69.70;;;;;;4998149;28;20045;-77
2023/12/09 11:00:24;;;;;;;0.10;0.10;;;15.40;69.60;;;;;;5008794;28;20049;-77
2023/12/09 11:02:50;;;;;;;0.10;0.10;;;15.40;69.50;;;;;;4984891;28;20037;-77
2023/12/09 11:05:15;;;;;;;0.10;0.10;;;15.40;69.40;;;;;;5026320;28;20041;-77
2023/12/09 11:07:41;;;;;;;0.10;0.05;;;15.40;70.30;;;;;;4990554;28;20077;-77
2023/12/09 11:10:07;;;;;;;0.05;0.05;;;15.40;69.40;;;;;;5009410;28;20112;-77
2023/12/09 11:12:33;;;;;;;0.10;0.10;;;15.40;69.60;;;;;;5019434;28;20034;-77
2023/12/09 11:15:13;;;;;;;0.03;0.03;;;15.40;69.40;;;;;;5000764;28;20649;-77
2023/12/09 11:17:49;;;;;;;0.00;0.00;;;15.40;69.20;;;;;;5022143;28;20046;-77
2023/12/09 11:20:16;;;;;;;0.00;0.00;;;15.40;69.40;;;;;;5006408;28;20072;-77
2023/12/09 11:22:45;;;;;;;0.10;0.10;;;15.40;69.40;;;;;;5019294;28;20049;-77
2023/12/09 11:25:22;;;;;;;0.10;0.00;;;15.40;69.60;;;;;;5003208;28;20127;-77
2023/12/09 11:27:53;;;;;;;0.00;0.00;;;15.40;69.40;;;;;;5002547;28;20176;-77
2023/12/09 11:30:33;;;;;;;0.10;0.03;;;15.40;69.90;;;;;;5015107;28;20115;-78
2023/12/09 11:32:59;;;;;;;0.03;0.03;;;15.40;69.50;;;;;;5021911;28;20049;-77
2023/12/09 11:35:25;;;;;;;0.00;0.00;;;15.40;69.70;;;;;;5014164;28;20423;-77
2023/12/09 11:37:50;;;;;;;0.08;0.00;;;15.40;70.20;;;;;;4984822;28;20049;-79
2023/12/09 11:40:16;;;;;;;0.00;0.00;;;15.40;69.20;;;;;;5022050;28;20665;-79
2023/12/09 11:42:42;;;;;;;0.00;0.00;;;15.40;69.80;;;;;;4987526;28;20124;-77
2023/12/09 11:45:08;;;;;;;0.00;0.00;;;15.40;69.60;;;;;;5041579;28;20144;-77
2023/12/09 11:47:34;;;;;;;0.10;0.00;;;15.40;70.10;;;;;;4983013;28;20046;-77
2023/12/09 11:49:59;;;;;;;0.17;0.10;;;15.50;69.30;;;;;;5026362;28;20048;-77
2023/12/09 11:52:25;;;;;;;0.00;0.00;;;15.40;69.70;;;;;;4997380;28;20090;-77
2023/12/09 11:55:01;;;;;;;0.10;0.00;;;15.50;69.70;;;;;;5036664;28;20037;-77
2023/12/09 11:57:30;;;;;;;0.10;0.00;;;15.40;69.70;;;;;;5037626;28;20172;-77
2023/12/09 11:59:56;;;;;;;0.00;0.00;;;15.50;70.10;;;;;;5020356;28;20079;-77
2023/12/09 12:02:22;;;;;;;0.20;0.10;;;15.40;69.80;;;;;;5012268;28;20501;-78
2023/12/09 12:04:47;;;;;;;0.00;0.00;;;15.50;70.80;;;;;;5024130;28;20596;-77
2023/12/09 12:07:13;;;;;;;0.47;0.10;;;15.50;69.40;;;;;;5039666;28;20490;-77
2023/12/09 12:09:38;;;;;;;0.10;0.10;;;15.50;71.10;;;;;;5025848;28;20506;-77
2023/12/09 12:12:07;;;;;;;0.10;0.00;;;15.50;70.40;;;;;;5039612;28;20048;-77
2023/12/09 12:14:33;;;;;;;0.10;0.10;;;15.50;69.80;;;;;;5040082;28;20826;-77
2023/12/09 12:16:59;;;;;;;0.00;0.00;;;15.50;70.20;;;;;;4997710;28;20040;-77
2023/12/09 12:19:25;;;;;;;0.00;0.00;;;15.50;69.80;;;;;;5040580;28;20044;-77
2023/12/09 12:21:54;;;;;;;0.10;0.10;;;15.50;69.60;;;;;;5028356;28;20049;-77
2023/12/09 12:24:20;;;;;;;0.00;0.00;;;15.50;69.90;;;;;;5043052;28;20108;-78
2023/12/09 12:26:46;;;;;;;0.10;0.10;;;15.50;69.60;;;;;;5046719;28;20053;-77
2023/12/09 12:29:21;;;;;;;0.05;0.05;;;15.50;69.90;;;;;;5055478;28;20070;-76
2023/12/09 12:31:50;;;;;;;0.10;0.00;;;15.50;70.00;;;;;;5053711;28;20049;-77
2023/12/09 12:34:19;;;;;;;0.00;0.00;;;15.50;70.50;;;;;;5043247;28;20037;-77
2023/12/09 12:36:45;;;;;;;0.00;0.00;;;15.50;69.80;;;;;;5029372;28;20097;-77
2023/12/09 12:39:14;;;;;;;0.00;0.00;;;15.40;69.80;;;;;;5054664;28;20041;-77
2023/12/09 12:41:39;;;;;;;0.10;0.10;;;15.50;70.20;;;;;;5045107;28;20461;-77
2023/12/09 12:44:05;;;;;;;0.10;0.10;;;15.50;70.50;;;;;;5027537;28;20045;-77